Back Gate, Arkansas
Current Conditions -  °F | °C
As of 9:53 AM on Wednesday 22 Oct 2014 (Local Time) from KLLQ Reporting Station
Clear Clear  
Wind Chill: 61°   Ceiling: Unl
Heat Index: 61°   Visibility: 10mi
Dew Point: 52°   Wind: 8mph
Humidity: 72%   Direction: 60°ENE
Pressure: 30.21"   Gusts: NA
Location:  33.9283°N, 91.468°W
Report Text: KLLQ 221453Z AUTO 06007KT 10SM CLR 16/11 A3021 RMK AO2 SLP227 T01610111 51020
Loading
Personal Weather Stations






























Interactive Weather Map
Tropical Storm Tracking
New forecast layout! Learn more

10-Day Weather Forecast

Advertisements
Track Severe Weather on mobile